createdAt,value
2023-04-15T00:01:37.384Z,6.60
2023-04-15T00:04:05.164Z,6.60
2023-04-15T00:06:32.151Z,6.60
2023-04-15T00:08:59.328Z,6.60
2023-04-15T00:11:26.332Z,6.50
2023-04-15T00:13:53.177Z,6.50
2023-04-15T00:16:19.994Z,6.50
2023-04-15T00:18:46.863Z,6.50
2023-04-15T00:21:13.728Z,6.50
2023-04-15T00:23:40.635Z,6.50
2023-04-15T00:26:07.536Z,6.40
2023-04-15T00:28:34.480Z,6.40
2023-04-15T00:31:01.588Z,6.40
2023-04-15T00:33:28.405Z,6.40
2023-04-15T00:35:55.262Z,6.40
2023-04-15T00:38:22.059Z,6.40
2023-04-15T00:40:48.930Z,6.40
2023-04-15T00:43:16.543Z,6.30
2023-04-15T00:45:43.565Z,6.30
2023-04-15T00:48:11.440Z,7.30
2023-04-15T00:50:38.301Z,6.30
2023-04-15T00:53:05.590Z,6.30
2023-04-15T00:55:32.402Z,6.30
2023-04-15T00:57:59.319Z,6.30
2023-04-15T01:00:26.740Z,6.30
2023-04-15T01:02:53.796Z,6.30
2023-04-15T01:05:20.830Z,6.30
2023-04-15T01:07:48.815Z,7.20
2023-04-15T01:10:15.819Z,6.30
2023-04-15T01:12:43.316Z,6.30
2023-04-15T01:15:11.153Z,6.30
2023-04-15T01:17:38.704Z,6.30
2023-04-15T01:20:09.812Z,6.40
2023-04-15T01:22:36.810Z,6.40
2023-04-15T01:25:12.353Z,6.40
2023-04-15T01:27:42.631Z,6.40
2023-04-15T01:30:10.594Z,6.40
2023-04-15T01:32:38.068Z,6.40
2023-04-15T01:35:05.499Z,6.40
2023-04-15T01:37:33.001Z,6.40
2023-04-15T01:39:59.837Z,6.40
2023-04-15T01:42:27.618Z,6.40
2023-04-15T01:44:54.778Z,6.40
2023-04-15T01:47:21.694Z,6.40
2023-04-15T01:49:48.731Z,6.40
2023-04-15T01:52:15.751Z,6.50
2023-04-15T01:54:42.685Z,6.50
2023-04-15T01:57:09.806Z,6.50
2023-04-15T01:59:37.136Z,7.70
2023-04-15T02:02:05.392Z,6.50
2023-04-15T02:04:32.649Z,6.60
2023-04-15T02:06:59.816Z,6.60
2023-04-15T02:09:26.652Z,6.60
2023-04-15T02:11:56.051Z,6.60
2023-04-15T02:14:23.173Z,6.60
2023-04-15T02:16:50.045Z,6.60
2023-04-15T02:19:17.576Z,6.60
2023-04-15T02:21:44.402Z,6.50
2023-04-15T02:24:12.350Z,7.10
2023-04-15T02:26:39.496Z,6.50
2023-04-15T02:29:06.716Z,6.40
2023-04-15T02:31:36.973Z,6.40
2023-04-15T02:34:04.631Z,6.40
2023-04-15T02:36:31.954Z,6.40
2023-04-15T02:38:59.365Z,6.40
2023-04-15T02:41:28.434Z,6.40
2023-04-15T02:43:55.791Z,6.30
2023-04-15T02:46:23.000Z,6.30
2023-04-15T02:48:50.670Z,6.30
2023-04-15T02:51:21.063Z,7.30
2023-04-15T02:53:49.281Z,6.20
2023-04-15T02:56:17.351Z,6.20
2023-04-15T02:58:45.652Z,6.20
2023-04-15T03:01:12.617Z,6.20
2023-04-15T03:03:39.536Z,6.10
2023-04-15T03:06:06.576Z,6.10
2023-04-15T03:08:33.388Z,6.10
2023-04-15T03:11:02.426Z,6.10
2023-04-15T03:13:29.263Z,6.10
2023-04-15T03:15:56.566Z,6.10
2023-04-15T03:18:23.589Z,6.10
2023-04-15T03:20:50.587Z,6.10
2023-04-15T03:23:17.558Z,6.00
2023-04-15T03:25:45.757Z,6.00
2023-04-15T03:28:12.809Z,6.00
2023-04-15T03:30:39.605Z,6.00
2023-04-15T03:33:06.962Z,5.90
2023-04-15T03:35:34.412Z,6.00
2023-04-15T03:38:01.455Z,6.00
2023-04-15T03:40:28.298Z,5.90
2023-04-15T03:42:55.255Z,5.90
2023-04-15T03:45:22.032Z,5.90
2023-04-15T03:47:49.799Z,5.80
2023-04-15T03:50:16.691Z,5.90
2023-04-15T03:52:45.698Z,5.90
2023-04-15T03:55:12.664Z,5.80
2023-04-15T03:57:39.713Z,5.90
2023-04-15T04:00:09.397Z,5.80
2023-04-15T04:02:36.717Z,5.80
2023-04-15T04:05:04.095Z,5.80
2023-04-15T04:07:31.011Z,5.80
2023-04-15T04:09:58.417Z,5.80
2023-04-15T04:12:25.323Z,5.80
2023-04-15T04:14:52.111Z,5.80
2023-04-15T04:17:19.022Z,5.80
2023-04-15T04:19:46.253Z,5.80
2023-04-15T04:22:13.052Z,5.80
2023-04-15T04:24:39.843Z,5.70
2023-04-15T04:27:06.669Z,5.70
2023-04-15T04:29:33.515Z,5.70
2023-04-15T04:32:00.672Z,5.70
2023-04-15T04:34:27.550Z,5.70
2023-04-15T04:36:54.352Z,5.70
2023-04-15T04:39:21.122Z,5.70
2023-04-15T04:41:47.925Z,5.70
2023-04-15T04:44:14.726Z,5.70
2023-04-15T04:46:41.475Z,5.70
2023-04-15T04:49:08.268Z,5.70
2023-04-15T04:51:35.377Z,5.70
2023-04-15T04:54:03.689Z,5.80
2023-04-15T04:56:30.755Z,5.80
2023-04-15T04:58:57.531Z,5.80
2023-04-15T05:01:24.476Z,5.80
2023-04-15T05:03:51.469Z,5.80
2023-04-15T05:06:18.394Z,5.80
2023-04-15T05:08:46.612Z,5.80
2023-04-15T05:11:13.386Z,5.80
2023-04-15T05:13:40.300Z,5.90
2023-04-15T05:16:07.511Z,5.90
2023-04-15T05:18:34.461Z,5.90
2023-04-15T05:21:02.564Z,5.90
2023-04-15T05:23:29.457Z,6.00
2023-04-15T05:25:56.274Z,6.00
2023-04-15T05:28:23.078Z,6.00
2023-04-15T05:30:50.051Z,6.00
2023-04-15T05:33:17.540Z,6.10
2023-04-15T05:35:44.389Z,6.10
2023-04-15T05:38:11.244Z,6.10
2023-04-15T05:40:38.102Z,6.20
2023-04-15T05:43:04.956Z,6.30
2023-04-15T05:45:31.891Z,6.30
2023-04-15T05:47:59.015Z,6.40
2023-04-15T05:50:26.237Z,6.50
2023-04-15T05:52:53.040Z,6.60
2023-04-15T05:55:19.922Z,6.60
2023-04-15T05:57:46.897Z,6.70
2023-04-15T06:00:15.256Z,6.80
2023-04-15T06:02:42.585Z,6.90
2023-04-15T06:05:10.776Z,7.00
2023-04-15T06:07:38.515Z,7.10
2023-04-15T06:10:06.271Z,7.20
2023-04-15T06:12:33.579Z,7.30
2023-04-15T06:15:00.542Z,7.40
2023-04-15T06:17:27.491Z,7.50
2023-04-15T06:19:55.812Z,7.50
2023-04-15T06:22:23.917Z,7.60
2023-04-15T06:24:51.471Z,7.70
2023-04-15T06:27:18.867Z,7.80
2023-04-15T06:29:46.253Z,8.00
2023-04-15T06:32:13.091Z,8.10
2023-04-15T06:34:40.338Z,9.60
2023-04-15T06:37:07.258Z,8.20
2023-04-15T06:39:34.075Z,8.20
2023-04-15T06:42:03.348Z,8.30
2023-04-15T06:44:31.573Z,8.30
2023-04-15T06:47:01.249Z,8.30
2023-04-15T06:49:28.077Z,8.30
2023-04-15T06:51:54.928Z,8.40
2023-04-15T06:54:21.745Z,8.30
2023-04-15T06:56:48.514Z,8.30
2023-04-15T06:59:15.346Z,8.30
2023-04-15T07:01:42.141Z,8.40
2023-04-15T07:04:09.050Z,8.50
2023-04-15T07:06:36.221Z,8.60
2023-04-15T07:09:04.651Z,8.80
2023-04-15T07:11:31.778Z,8.90
2023-04-15T07:13:58.850Z,9.10
2023-04-15T07:16:27.776Z,9.30
2023-04-15T07:18:55.954Z,9.50
2023-04-15T07:21:22.869Z,9.70
2023-04-15T07:23:49.863Z,9.90
2023-04-15T07:26:16.641Z,10.00
2023-04-15T07:28:43.502Z,10.30
2023-04-15T07:31:10.525Z,10.50
2023-04-15T07:33:37.870Z,10.70
2023-04-15T07:36:04.930Z,10.70
2023-04-15T07:38:31.743Z,10.80
2023-04-15T07:40:58.990Z,10.90
2023-04-15T07:43:25.888Z,10.90
2023-04-15T07:45:53.059Z,10.90
2023-04-15T07:48:19.837Z,10.80
2023-04-15T07:50:46.679Z,10.80
2023-04-15T07:53:13.619Z,10.80
2023-04-15T07:55:41.015Z,11.70
2023-04-15T07:58:07.764Z,10.80
2023-04-15T08:00:34.534Z,10.90
2023-04-15T08:03:01.481Z,11.10
2023-04-15T08:05:28.636Z,11.20
2023-04-15T08:07:58.604Z,11.30
2023-04-15T08:10:25.623Z,11.40
2023-04-15T08:12:54.289Z,11.60
2023-04-15T08:15:21.565Z,11.70
2023-04-15T08:17:48.411Z,11.70
2023-04-15T08:20:15.384Z,11.70
2023-04-15T08:22:42.512Z,11.60
2023-04-15T08:25:10.344Z,11.60
2023-04-15T08:27:37.520Z,11.60
2023-04-15T08:30:05.357Z,11.70
2023-04-15T08:32:32.441Z,11.70
2023-04-15T08:34:59.282Z,11.70
2023-04-15T08:37:26.805Z,11.60
2023-04-15T08:39:53.636Z,11.60
2023-04-15T08:42:31.293Z,11.50
2023-04-15T08:45:01.694Z,11.40
2023-04-15T08:47:32.034Z,11.40
2023-04-15T08:49:59.430Z,11.40
2023-04-15T08:52:32.241Z,11.40
2023-04-15T08:55:02.080Z,11.40
2023-04-15T08:57:29.471Z,11.50
2023-04-15T08:59:57.293Z,11.50
2023-04-15T09:02:27.304Z,11.50
2023-04-15T09:04:54.404Z,11.60
2023-04-15T09:07:21.301Z,11.60
2023-04-15T09:09:48.949Z,11.70
2023-04-15T09:12:17.224Z,11.80
2023-04-15T09:14:47.257Z,11.70
2023-04-15T09:17:18.549Z,11.70
2023-04-15T09:19:45.339Z,11.60
2023-04-15T09:22:12.590Z,11.70
2023-04-15T09:24:42.219Z,11.80
2023-04-15T09:27:09.333Z,11.90
2023-04-15T09:29:36.957Z,11.90
2023-04-15T09:32:15.581Z,11.90
2023-04-15T09:34:43.222Z,12.00
2023-04-15T09:37:11.187Z,12.00
2023-04-15T09:39:52.518Z,11.90
2023-04-15T09:42:28.703Z,11.80
2023-04-15T09:44:55.979Z,11.80
2023-04-15T09:47:32.640Z,11.90
2023-04-15T09:50:01.317Z,11.90
2023-04-15T09:52:28.946Z,11.90
2023-04-15T09:54:59.430Z,12.00
2023-04-15T09:57:38.497Z,12.00
2023-04-15T10:00:08.856Z,12.10
2023-04-15T10:02:36.877Z,12.30
2023-04-15T10:05:04.685Z,12.50
2023-04-15T10:07:32.393Z,12.60
2023-04-15T10:10:02.307Z,12.60
2023-04-15T10:12:29.835Z,12.70
2023-04-15T10:15:07.762Z,12.60
2023-04-15T10:17:37.035Z,12.60
2023-04-15T10:20:05.674Z,12.50
2023-04-15T10:22:33.377Z,12.40
2023-04-15T10:25:01.190Z,12.30
2023-04-15T10:27:28.937Z,12.20
2023-04-15T10:29:57.517Z,12.20
2023-04-15T10:32:25.532Z,12.10
2023-04-15T10:34:54.563Z,12.10
2023-04-15T10:37:41.903Z,12.00
2023-04-15T10:40:32.612Z,11.90
2023-04-15T10:43:02.121Z,11.90
2023-04-15T10:45:37.385Z,11.90
2023-04-15T10:48:08.095Z,12.00
2023-04-15T10:50:37.131Z,12.10
2023-04-15T10:53:07.157Z,12.10
2023-04-15T10:55:35.241Z,12.10
2023-04-15T10:58:02.689Z,12.10
2023-04-15T11:00:32.642Z,12.00
2023-04-15T11:03:09.859Z,12.10
2023-04-15T11:05:42.774Z,12.20
2023-04-15T11:08:11.696Z,12.30
2023-04-15T11:10:38.835Z,12.30
2023-04-15T11:13:11.652Z,12.20
2023-04-15T11:15:48.909Z,12.30
2023-04-15T11:18:22.239Z,12.20
2023-04-15T11:20:59.461Z,12.00
2023-04-15T11:23:44.211Z,12.00
2023-04-15T11:26:14.006Z,11.80
2023-04-15T11:28:45.823Z,11.70
2023-04-15T11:31:20.081Z,11.60
2023-04-15T11:34:05.768Z,11.60
2023-04-15T11:36:32.991Z,11.60
2023-04-15T11:39:00.235Z,11.60
2023-04-15T11:41:27.121Z,11.60
2023-04-15T11:43:53.969Z,11.60
2023-04-15T11:46:22.897Z,11.60
2023-04-15T11:48:50.203Z,11.50
2023-04-15T11:51:17.055Z,11.60
2023-04-15T11:53:49.873Z,11.70
2023-04-15T11:56:22.407Z,11.80
2023-04-15T11:59:02.149Z,11.90
2023-04-15T12:01:33.509Z,12.00
2023-04-15T12:04:01.662Z,12.20
2023-04-15T12:06:38.688Z,12.40
2023-04-15T12:09:20.579Z,12.50
2023-04-15T12:11:58.260Z,12.60
2023-04-15T12:14:32.969Z,12.50
2023-04-15T12:17:04.823Z,12.30
2023-04-15T12:19:36.266Z,12.00
2023-04-15T12:22:11.351Z,11.90
2023-04-15T12:24:39.416Z,11.80
2023-04-15T12:27:08.774Z,11.70
2023-04-15T12:29:38.750Z,11.70
2023-04-15T12:32:07.738Z,11.70
2023-04-15T12:34:37.947Z,11.80
2023-04-15T12:37:11.266Z,11.90
2023-04-15T12:39:41.559Z,12.00
2023-04-15T12:42:09.584Z,12.20
2023-04-15T12:44:38.167Z,12.20
2023-04-15T12:47:05.479Z,12.20
2023-04-15T12:49:33.494Z,12.10
2023-04-15T12:52:02.462Z,12.10
2023-04-15T12:54:32.925Z,12.60
2023-04-15T12:57:00.852Z,12.10
2023-04-15T12:59:28.194Z,12.10
2023-04-15T13:01:55.433Z,12.00
2023-04-15T13:04:22.783Z,12.00
2023-04-15T13:06:49.827Z,12.60
2023-04-15T13:09:16.752Z,12.00
2023-04-15T13:11:43.729Z,11.90
2023-04-15T13:14:13.685Z,11.90
2023-04-15T13:16:40.894Z,12.00
2023-04-15T13:19:07.952Z,12.00
2023-04-15T13:21:35.997Z,12.00
2023-04-15T13:24:04.935Z,12.00
2023-04-15T13:26:32.311Z,11.90
2023-04-15T13:28:59.976Z,11.80
2023-04-15T13:31:27.182Z,11.80
2023-04-15T13:33:54.195Z,11.70
2023-04-15T13:36:21.116Z,11.60
2023-04-15T13:38:50.932Z,11.60
2023-04-15T13:41:18.536Z,11.50
2023-04-15T13:43:45.643Z,11.40
2023-04-15T13:46:12.887Z,11.40
2023-04-15T13:48:39.898Z,11.20
2023-04-15T13:51:06.683Z,11.10
2023-04-15T13:53:38.859Z,11.10
2023-04-15T13:56:10.315Z,11.00
2023-04-15T13:58:38.190Z,11.00
2023-04-15T14:01:07.098Z,10.30
2023-04-15T14:03:36.548Z,11.00
2023-04-15T14:06:04.860Z,11.00
2023-04-15T14:08:31.911Z,10.90
2023-04-15T14:10:58.809Z,10.90
2023-04-15T14:13:25.874Z,10.90
2023-04-15T14:15:52.909Z,10.90
2023-04-15T14:18:19.832Z,10.80
2023-04-15T14:20:46.826Z,10.80
2023-04-15T14:23:13.776Z,10.80
2023-04-15T14:25:40.580Z,11.30
2023-04-15T14:28:07.436Z,10.80
2023-04-15T14:30:34.495Z,10.70
2023-04-15T14:33:01.536Z,10.60
2023-04-15T14:35:28.594Z,10.50
2023-04-15T14:37:56.280Z,10.40
2023-04-15T14:40:23.436Z,10.40
2023-04-15T14:42:50.316Z,10.30
2023-04-15T14:45:17.689Z,10.30
2023-04-15T14:47:44.785Z,10.20
2023-04-15T14:50:11.959Z,10.20
2023-04-15T14:52:39.059Z,10.20
2023-04-15T14:55:11.508Z,10.30
2023-04-15T14:57:41.237Z,10.40
2023-04-15T15:00:12.214Z,10.40
2023-04-15T15:02:42.133Z,10.50
2023-04-15T15:05:10.748Z,10.50
2023-04-15T15:07:39.315Z,10.50
2023-04-15T15:10:07.156Z,10.40
2023-04-15T15:12:34.004Z,10.40
2023-04-15T15:15:03.027Z,10.40
2023-04-15T15:17:32.144Z,10.40
2023-04-15T15:19:59.196Z,10.50
2023-04-15T15:22:26.204Z,10.50
2023-04-15T15:24:53.552Z,10.50
2023-04-15T15:27:20.684Z,10.60
2023-04-15T15:29:47.645Z,10.70
2023-04-15T15:32:14.426Z,10.70
2023-04-15T15:34:41.277Z,10.80
2023-04-15T15:37:08.069Z,10.90
2023-04-15T15:39:35.990Z,10.90
2023-04-15T15:42:02.974Z,10.90
2023-04-15T15:44:29.768Z,10.80
2023-04-15T15:46:56.672Z,10.70
2023-04-15T15:49:25.269Z,10.60
2023-04-15T15:51:52.051Z,10.50
2023-04-15T15:54:18.892Z,10.40
2023-04-15T15:56:45.702Z,10.30
2023-04-15T15:59:12.527Z,10.30
2023-04-15T16:01:39.569Z,10.20
2023-04-15T16:04:07.130Z,10.10
2023-04-15T16:06:35.216Z,10.00
2023-04-15T16:09:02.447Z,10.00
2023-04-15T16:11:29.812Z,9.90
2023-04-15T16:13:56.754Z,9.90
2023-04-15T16:16:24.251Z,9.90
2023-04-15T16:18:51.121Z,9.80
2023-04-15T16:21:18.019Z,9.80
2023-04-15T16:23:45.037Z,9.70
2023-04-15T16:26:11.953Z,9.60
2023-04-15T16:28:38.795Z,9.50
2023-04-15T16:31:05.915Z,9.30
2023-04-15T16:33:33.021Z,9.10
2023-04-15T16:35:59.891Z,8.80
2023-04-15T16:38:26.644Z,8.60
2023-04-15T16:40:54.054Z,8.50
2023-04-15T16:43:20.895Z,8.40
2023-04-15T16:45:50.949Z,8.40
2023-04-15T16:48:19.989Z,8.30
2023-04-15T16:50:47.795Z,8.30
2023-04-15T16:53:18.004Z,8.30
2023-04-15T16:55:44.852Z,8.20
2023-04-15T16:58:11.711Z,8.20
2023-04-15T17:00:38.747Z,8.10
2023-04-15T17:03:06.285Z,8.00
2023-04-15T17:05:33.654Z,7.80
2023-04-15T17:08:00.576Z,7.60
2023-04-15T17:10:28.108Z,7.50
2023-04-15T17:12:58.957Z,7.30
2023-04-15T17:15:26.396Z,7.20
2023-04-15T17:17:53.533Z,7.20
2023-04-15T17:20:20.681Z,7.10
2023-04-15T17:22:48.667Z,7.10
2023-04-15T17:25:15.896Z,7.00
2023-04-15T17:27:42.849Z,7.00
2023-04-15T17:30:10.093Z,7.00
2023-04-15T17:32:40.106Z,7.00
2023-04-15T17:35:07.945Z,6.90
2023-04-15T17:37:35.261Z,6.90
2023-04-15T17:40:02.416Z,6.90
2023-04-15T17:42:29.224Z,6.90
2023-04-15T17:44:56.273Z,6.80
2023-04-15T17:47:23.132Z,6.80
2023-04-15T17:49:49.988Z,6.80
2023-04-15T17:52:16.776Z,6.70
2023-04-15T17:54:43.589Z,6.70
2023-04-15T17:57:10.638Z,6.70
2023-04-15T17:59:37.519Z,6.60
2023-04-15T18:02:04.413Z,6.60
2023-04-15T18:04:31.369Z,6.50
2023-04-15T18:06:58.242Z,6.60
2023-04-15T18:09:25.324Z,6.50
2023-04-15T18:11:52.118Z,6.50
2023-04-15T18:14:32.982Z,6.50
2023-04-15T18:17:02.417Z,6.40
2023-04-15T18:19:30.635Z,6.40
2023-04-15T18:22:00.014Z,6.40
2023-04-15T18:24:27.290Z,6.40
2023-04-15T18:26:54.163Z,6.40
2023-04-15T18:29:21.023Z,6.40
2023-04-15T18:31:48.001Z,6.40
2023-04-15T18:34:14.895Z,6.40
2023-04-15T18:36:41.831Z,6.30
2023-04-15T18:39:09.190Z,6.30
2023-04-15T18:41:36.045Z,6.20
2023-04-15T18:44:02.800Z,6.20
2023-04-15T18:46:29.613Z,6.20
2023-04-15T18:48:56.458Z,6.10
2023-04-15T18:51:23.315Z,6.10
2023-04-15T18:53:50.424Z,6.10
2023-04-15T18:56:17.384Z,6.10
2023-04-15T18:59:27.133Z,6.10
2023-04-15T19:01:32.021Z,6.00
2023-04-15T19:03:59.430Z,6.00
2023-04-15T19:06:27.214Z,6.00
2023-04-15T19:08:54.591Z,6.00
2023-04-15T19:11:21.703Z,6.00
2023-04-15T19:13:48.781Z,6.00
2023-04-15T19:16:15.724Z,5.90
2023-04-15T19:18:43.155Z,5.90
2023-04-15T19:21:14.280Z,6.00
2023-04-15T19:23:42.975Z,5.90
2023-04-15T19:26:10.313Z,5.90
2023-04-15T19:28:37.171Z,5.90
2023-04-15T19:31:04.092Z,5.90
2023-04-15T19:33:31.599Z,5.90
2023-04-15T19:36:04.667Z,5.90
2023-04-15T19:38:33.215Z,5.90
2023-04-15T19:41:00.022Z,5.80
2023-04-15T19:43:27.163Z,5.90
2023-04-15T19:45:54.677Z,5.90
2023-04-15T19:48:24.391Z,5.80
2023-04-15T19:50:51.607Z,5.80
2023-04-15T19:53:18.576Z,5.80
2023-04-15T19:55:45.776Z,5.80
2023-04-15T19:58:12.626Z,5.80
2023-04-15T20:00:39.490Z,5.80
2023-04-15T20:03:06.540Z,5.80
2023-04-15T20:05:33.627Z,5.80
2023-04-15T20:08:01.569Z,5.80
2023-04-15T20:10:28.754Z,5.80
2023-04-15T20:12:55.659Z,5.80
2023-04-15T20:15:23.855Z,5.80
2023-04-15T20:17:51.212Z,5.80
2023-04-15T20:20:18.296Z,5.80
2023-04-15T20:22:45.301Z,5.80
2023-04-15T20:25:12.253Z,5.80
2023-04-15T20:27:39.202Z,5.80
2023-04-15T20:30:07.350Z,5.80
2023-04-15T20:32:35.863Z,5.80
2023-04-15T20:35:07.196Z,5.80
2023-04-15T20:37:34.582Z,5.80
2023-04-15T20:40:02.349Z,5.80
2023-04-15T20:42:36.392Z,5.80
2023-04-15T20:45:03.851Z,5.80
2023-04-15T20:47:30.810Z,5.80
2023-04-15T20:49:57.752Z,5.80
2023-04-15T20:52:24.529Z,5.80
2023-04-15T20:54:51.561Z,5.80
2023-04-15T20:57:19.910Z,5.80
2023-04-15T20:59:46.958Z,6.00
2023-04-15T21:02:13.835Z,5.80
2023-04-15T21:04:40.777Z,5.80
2023-04-15T21:07:07.692Z,5.80
2023-04-15T21:09:34.524Z,5.80
2023-04-15T21:12:02.205Z,5.80
2023-04-15T21:14:29.620Z,5.80
2023-04-15T21:16:59.662Z,5.80
2023-04-15T21:19:26.508Z,5.80
2023-04-15T21:21:53.311Z,5.80
2023-04-15T21:24:20.185Z,5.80
2023-04-15T21:26:46.989Z,5.80
2023-04-15T21:29:14.009Z,5.80
2023-04-15T21:31:41.080Z,5.80
2023-04-15T21:34:08.482Z,5.80
2023-04-15T21:36:35.534Z,5.80
2023-04-15T21:39:02.463Z,5.80
2023-04-15T21:41:29.844Z,5.80
2023-04-15T21:43:56.843Z,5.80
2023-04-15T21:46:25.613Z,5.80
2023-04-15T21:48:59.865Z,5.80
2023-04-15T21:51:27.648Z,5.80
2023-04-15T21:53:54.631Z,5.80
2023-04-15T21:56:23.099Z,5.80
2023-04-15T21:58:50.307Z,5.80
2023-04-15T22:01:17.436Z,5.80
2023-04-15T22:03:44.560Z,5.80
2023-04-15T22:06:13.550Z,5.80
2023-04-15T22:08:53.118Z,5.80
2023-04-15T22:11:26.335Z,5.80
2023-04-15T22:13:54.315Z,5.80
2023-04-15T22:16:21.160Z,5.80
2023-04-15T22:18:48.067Z,5.80
2023-04-15T22:21:14.975Z,5.80
2023-04-15T22:23:41.781Z,5.80
2023-04-15T22:26:08.581Z,5.80
2023-04-15T22:28:35.761Z,5.80
2023-04-15T22:31:02.761Z,5.80
2023-04-15T22:33:29.782Z,5.80
2023-04-15T22:35:57.020Z,5.80
2023-04-15T22:38:24.937Z,5.80
2023-04-15T22:40:54.434Z,5.80
2023-04-15T22:43:22.217Z,5.80
2023-04-15T22:45:53.066Z,5.80
2023-04-15T22:48:20.033Z,5.80
2023-04-15T22:50:46.897Z,5.80
2023-04-15T22:53:16.502Z,5.80
2023-04-15T22:55:49.570Z,5.80
2023-04-15T22:58:18.259Z,5.80
2023-04-15T23:00:45.479Z,5.80
2023-04-15T23:03:12.519Z,5.80
